createdAt,value
2019-03-21T00:01:10.611Z,101557.00
2019-03-21T00:03:39.865Z,101550.00
2019-03-21T00:06:11.253Z,101565.00
2019-03-21T00:08:40.374Z,101561.00
2019-03-21T00:12:01.420Z,101566.00
2019-03-21T00:14:53.353Z,101561.00
2019-03-21T00:17:33.126Z,101547.00
2019-03-21T00:20:02.445Z,101547.00
2019-03-21T00:22:32.185Z,101554.00
2019-03-21T00:25:01.445Z,101555.00
2019-03-21T00:27:30.543Z,101548.00
2019-03-21T00:29:59.953Z,101545.00
2019-03-21T00:32:29.200Z,101549.00
2019-03-21T00:34:58.713Z,101549.00
2019-03-21T00:37:27.939Z,101543.00
2019-03-21T00:39:57.501Z,101543.00
2019-03-21T00:42:26.720Z,101529.00
2019-03-21T00:44:56.179Z,101526.00
2019-03-21T00:47:25.469Z,101532.00
2019-03-21T00:49:54.758Z,101528.00
2019-03-21T00:52:24.038Z,101527.00
2019-03-21T00:54:53.361Z,101515.00
2019-03-21T00:57:22.989Z,101512.00
2019-03-21T00:59:52.530Z,101518.00
2019-03-21T01:02:21.746Z,101511.00
2019-03-21T01:04:50.794Z,101509.00
2019-03-21T01:07:20.178Z,101512.00
2019-03-21T01:12:12.155Z,101497.00
2019-03-21T01:14:42.049Z,101499.00
2019-03-21T01:17:11.406Z,101492.00
2019-03-21T01:19:40.722Z,101497.00
2019-03-21T01:22:10.451Z,101494.00
2019-03-21T01:24:39.800Z,101494.00
2019-03-21T01:27:09.034Z,101494.00
2019-03-21T01:29:38.355Z,101494.00
2019-03-21T01:32:07.750Z,101493.00
2019-03-21T01:34:37.321Z,101492.00
2019-03-21T01:37:06.386Z,101494.00
2019-03-21T01:39:35.655Z,101496.00
2019-03-21T01:42:04.952Z,101506.00
2019-03-21T01:44:40.954Z,101509.00
2019-03-21T01:47:05.684Z,101520.00
2019-03-21T01:49:34.865Z,101504.00
2019-03-21T01:52:04.098Z,101500.00
2019-03-21T01:54:34.159Z,101502.00
2019-03-21T01:57:03.872Z,101495.00
2019-03-21T01:59:33.088Z,101496.00
2019-03-21T02:02:02.950Z,101488.00
2019-03-21T02:04:32.602Z,101476.00
2019-03-21T02:07:02.143Z,101487.00
2019-03-21T02:09:31.510Z,101485.00
2019-03-21T02:12:02.875Z,101479.00
2019-03-21T02:14:32.249Z,101475.00
2019-03-21T02:17:01.513Z,101471.00
2019-03-21T02:19:30.867Z,101469.00
2019-03-21T02:22:00.138Z,101462.00
2019-03-21T02:24:29.478Z,101460.00
2019-03-21T02:26:58.736Z,101454.00
2019-03-21T02:29:28.386Z,101454.00
2019-03-21T02:31:57.583Z,101456.00
2019-03-21T02:34:26.873Z,101462.00
2019-03-21T02:36:55.835Z,101458.00
2019-03-21T02:39:25.267Z,101456.00
2019-03-21T02:41:54.459Z,101473.00
2019-03-21T02:44:23.868Z,101487.00
2019-03-21T02:46:53.152Z,101482.00
2019-03-21T02:49:22.522Z,101484.00
2019-03-21T02:51:51.638Z,101484.00
2019-03-21T02:54:21.258Z,101482.00
2019-03-21T02:56:51.247Z,101480.00
2019-03-21T02:59:20.608Z,101470.00
2019-03-21T03:01:50.188Z,101479.00
2019-03-21T03:04:19.259Z,101483.00
2019-03-21T03:06:48.546Z,101474.00
2019-03-21T03:09:17.788Z,101485.00
2019-03-21T03:11:47.055Z,101491.00
2019-03-21T03:14:16.399Z,101487.00
2019-03-21T03:16:45.686Z,101494.00
2019-03-21T03:19:14.917Z,101504.00
2019-03-21T03:21:44.142Z,101493.00
2019-03-21T03:24:13.523Z,101509.00
2019-03-21T03:26:42.601Z,101506.00
2019-03-21T03:29:11.957Z,101504.00
2019-03-21T03:31:41.381Z,101512.00
2019-03-21T03:34:10.644Z,101513.00
2019-03-21T03:36:39.800Z,101515.00
2019-03-21T03:39:09.443Z,101516.00
2019-03-21T03:41:38.737Z,101516.00
2019-03-21T03:44:08.523Z,101531.00
2019-03-21T03:46:37.851Z,101529.00
2019-03-21T03:49:07.344Z,101520.00
2019-03-21T03:51:36.517Z,101532.00
2019-03-21T03:54:05.851Z,101529.00
2019-03-21T03:56:35.375Z,101532.00
2019-03-21T03:59:05.212Z,101530.00
2019-03-21T04:01:34.712Z,101533.00
2019-03-21T04:04:03.965Z,101528.00
2019-03-21T04:06:33.033Z,101521.00
2019-03-21T04:09:04.215Z,101530.00
2019-03-21T04:11:33.831Z,101532.00
2019-03-21T04:14:03.060Z,101525.00
2019-03-21T04:16:32.304Z,101528.00
2019-03-21T04:19:01.580Z,101530.00
2019-03-21T04:21:30.988Z,101522.00
2019-03-21T04:24:00.326Z,101536.00
2019-03-21T04:26:30.430Z,101527.00
2019-03-21T04:28:59.566Z,101520.00
2019-03-21T04:31:28.733Z,101525.00
2019-03-21T04:34:00.349Z,101525.00
2019-03-21T04:36:29.342Z,101529.00
2019-03-21T04:38:58.381Z,101531.00
2019-03-21T04:41:27.850Z,101538.00
2019-03-21T04:43:57.133Z,101535.00
2019-03-21T04:46:26.239Z,101536.00
2019-03-21T04:48:55.375Z,101539.00
2019-03-21T04:51:24.739Z,101539.00
2019-03-21T04:53:53.866Z,101545.00
2019-03-21T04:56:23.329Z,101542.00
2019-03-21T04:58:52.910Z,101540.00
2019-03-21T05:01:22.054Z,101536.00
2019-03-21T05:03:51.499Z,101534.00
2019-03-21T05:06:20.754Z,101533.00
2019-03-21T05:08:50.102Z,101545.00
2019-03-21T05:11:19.531Z,101539.00
2019-03-21T05:13:48.961Z,101537.00
2019-03-21T05:16:18.360Z,101541.00
2019-03-21T05:18:48.227Z,101543.00
2019-03-21T05:21:17.724Z,101534.00
2019-03-21T05:23:46.752Z,101536.00
2019-03-21T05:26:15.770Z,101543.00
2019-03-21T05:28:45.423Z,101542.00
2019-03-21T05:31:22.536Z,101541.00
2019-03-21T05:33:51.686Z,101546.00
2019-03-21T05:36:20.888Z,101547.00
2019-03-21T05:38:51.037Z,101541.00
2019-03-21T05:41:20.156Z,101554.00
2019-03-21T05:44:04.106Z,101549.00
2019-03-21T05:46:34.924Z,101553.00
2019-03-21T05:49:05.637Z,101551.00
2019-03-21T05:51:34.807Z,101553.00
2019-03-21T05:54:04.211Z,101558.00
2019-03-21T05:56:33.499Z,101555.00
2019-03-21T05:59:04.068Z,101545.00
2019-03-21T06:01:33.992Z,101549.00
2019-03-21T06:04:03.621Z,101561.00
2019-03-21T06:07:02.538Z,101561.00
2019-03-21T06:09:31.749Z,101552.00
2019-03-21T06:12:02.439Z,101560.00
2019-03-21T06:14:31.674Z,101564.00
2019-03-21T06:17:01.109Z,101566.00
2019-03-21T06:20:14.435Z,101569.00
2019-03-21T06:23:21.751Z,101570.00
2019-03-21T06:26:57.290Z,101568.00
2019-03-21T06:29:26.680Z,101575.00
2019-03-21T06:31:55.930Z,101584.00
2019-03-21T06:34:25.634Z,101586.00
2019-03-21T06:36:54.942Z,101584.00
2019-03-21T06:39:24.229Z,101583.00
2019-03-21T06:41:53.808Z,101584.00
2019-03-21T06:44:23.017Z,101587.00
2019-03-21T06:46:52.434Z,101584.00
2019-03-21T06:49:22.384Z,101586.00
2019-03-21T06:51:51.502Z,101590.00
2019-03-21T06:54:21.644Z,101587.00
2019-03-21T06:56:51.069Z,101595.00
2019-03-21T06:59:20.608Z,101597.00
2019-03-21T07:01:50.107Z,101593.00
2019-03-21T07:04:19.426Z,101591.00
2019-03-21T07:06:48.491Z,101598.00
2019-03-21T07:09:18.067Z,101597.00
2019-03-21T07:11:47.621Z,101601.00
2019-03-21T07:14:16.954Z,101604.00
2019-03-21T07:16:46.061Z,101605.00
2019-03-21T07:19:15.148Z,101602.00
2019-03-21T07:21:44.619Z,101613.00
2019-03-21T07:24:13.720Z,101609.00
2019-03-21T07:26:43.131Z,101616.00
2019-03-21T07:29:12.880Z,101613.00
2019-03-21T07:31:42.314Z,101622.00
2019-03-21T07:34:11.403Z,101625.00
2019-03-21T07:36:40.946Z,101619.00
2019-03-21T07:39:10.538Z,101612.00
2019-03-21T07:41:39.887Z,101607.00
2019-03-21T07:44:09.237Z,101616.00
2019-03-21T07:46:38.453Z,101617.00
2019-03-21T07:49:08.266Z,101622.00
2019-03-21T07:51:37.998Z,101629.00
2019-03-21T07:54:07.139Z,101629.00
2019-03-21T07:56:36.584Z,101640.00
2019-03-21T07:59:05.843Z,101637.00
2019-03-21T08:01:35.219Z,101648.00
2019-03-21T08:04:04.577Z,101635.00
2019-03-21T08:06:33.733Z,101639.00
2019-03-21T08:09:04.193Z,101647.00
2019-03-21T08:11:33.330Z,101639.00
2019-03-21T08:14:02.591Z,101663.00
2019-03-21T08:16:32.180Z,101650.00
2019-03-21T08:19:02.149Z,101645.00
2019-03-21T08:21:31.487Z,101654.00
2019-03-21T08:24:00.641Z,101650.00
2019-03-21T08:26:30.075Z,101649.00
2019-03-21T08:28:59.340Z,101647.00
2019-03-21T08:31:28.383Z,101644.00
2019-03-21T08:33:57.641Z,101656.00
2019-03-21T08:36:27.009Z,101660.00
2019-03-21T08:38:56.133Z,101653.00
2019-03-21T08:41:25.250Z,101660.00
2019-03-21T08:43:54.529Z,101656.00
2019-03-21T08:46:23.744Z,101660.00
2019-03-21T08:48:52.865Z,101670.00
2019-03-21T08:51:22.038Z,101665.00
2019-03-21T08:53:51.422Z,101661.00
2019-03-21T08:56:20.765Z,101663.00
2019-03-21T08:58:49.966Z,101663.00
2019-03-21T09:01:19.203Z,101668.00
2019-03-21T09:03:48.936Z,101663.00
2019-03-21T09:06:18.571Z,101660.00
2019-03-21T09:08:47.847Z,101668.00
2019-03-21T09:11:17.120Z,101681.00
2019-03-21T09:13:46.251Z,101667.00
2019-03-21T09:16:15.331Z,101671.00
2019-03-21T09:18:44.751Z,101679.00
2019-03-21T09:21:19.749Z,101682.00
2019-03-21T09:23:45.146Z,101677.00
2019-03-21T09:26:14.452Z,101680.00
2019-03-21T09:28:43.805Z,101686.00
2019-03-21T09:31:13.258Z,101680.00
2019-03-21T09:33:42.703Z,101682.00
2019-03-21T09:36:11.945Z,101684.00
2019-03-21T09:38:41.210Z,101689.00
2019-03-21T09:41:10.361Z,101688.00
2019-03-21T09:43:39.621Z,101678.00
2019-03-21T09:46:08.793Z,101676.00
2019-03-21T09:48:38.512Z,101686.00
2019-03-21T09:51:07.819Z,101686.00
2019-03-21T09:53:37.342Z,101683.00
2019-03-21T09:56:06.679Z,101682.00
2019-03-21T09:58:36.019Z,101680.00
2019-03-21T10:01:05.379Z,101676.00
2019-03-21T10:03:34.596Z,101683.00
2019-03-21T10:06:03.932Z,101684.00
2019-03-21T10:08:33.074Z,101679.00
2019-03-21T10:11:02.691Z,101690.00
2019-03-21T10:13:32.272Z,101688.00
2019-03-21T10:16:02.269Z,101688.00
2019-03-21T10:18:31.807Z,101691.00
2019-03-21T10:21:01.270Z,101688.00
2019-03-21T10:23:30.542Z,101686.00
2019-03-21T10:25:59.780Z,101689.00
2019-03-21T10:28:29.543Z,101679.00
2019-03-21T10:30:58.816Z,101681.00
2019-03-21T10:33:28.264Z,101675.00
2019-03-21T10:35:57.704Z,101679.00
2019-03-21T10:38:26.923Z,101695.00
2019-03-21T10:40:56.295Z,101692.00
2019-03-21T10:43:25.949Z,101703.00
2019-03-21T10:45:55.091Z,101694.00
2019-03-21T10:48:24.553Z,101689.00
2019-03-21T10:50:54.126Z,101689.00
2019-03-21T10:53:23.453Z,101686.00
2019-03-21T10:55:52.622Z,101682.00
2019-03-21T10:58:22.426Z,101674.00
2019-03-21T11:00:51.622Z,101682.00
2019-03-21T11:03:21.282Z,101674.00
2019-03-21T11:05:50.589Z,101678.00
2019-03-21T11:08:20.087Z,101671.00
2019-03-21T11:10:49.738Z,101680.00
2019-03-21T11:13:19.107Z,101683.00
2019-03-21T11:15:48.360Z,101680.00
2019-03-21T11:18:17.603Z,101689.00
2019-03-21T11:20:46.738Z,101702.00
2019-03-21T11:23:16.248Z,101686.00
2019-03-21T11:25:45.470Z,101686.00
2019-03-21T11:28:17.611Z,101681.00
2019-03-21T11:30:46.286Z,101670.00
2019-03-21T11:33:15.581Z,101673.00
2019-03-21T11:35:44.840Z,101669.00
2019-03-21T11:38:14.314Z,101671.00
2019-03-21T11:40:43.846Z,101664.00
2019-03-21T11:43:17.912Z,101665.00
2019-03-21T11:45:48.002Z,101670.00
2019-03-21T11:48:18.197Z,101660.00
2019-03-21T11:50:47.779Z,101661.00
2019-03-21T11:53:17.144Z,101672.00
2019-03-21T11:55:46.504Z,101657.00
2019-03-21T11:58:17.695Z,101659.00
2019-03-21T12:00:46.846Z,101657.00
2019-03-21T12:03:16.323Z,101659.00
2019-03-21T12:05:45.638Z,101660.00
2019-03-21T12:08:15.195Z,101656.00
2019-03-21T12:10:44.623Z,101659.00
2019-03-21T12:13:14.346Z,101657.00
2019-03-21T12:15:43.603Z,101657.00
2019-03-21T12:18:13.036Z,101648.00
2019-03-21T12:20:42.408Z,101644.00
2019-03-21T12:23:11.846Z,101652.00
2019-03-21T12:25:41.088Z,101654.00
2019-03-21T12:28:10.314Z,101656.00
2019-03-21T12:30:41.740Z,101653.00
2019-03-21T12:33:11.196Z,101626.00
2019-03-21T12:35:40.195Z,101636.00
2019-03-21T12:38:09.659Z,101638.00
2019-03-21T12:40:38.680Z,101641.00
2019-03-21T12:43:08.350Z,101636.00
2019-03-21T12:45:37.701Z,101624.00
2019-03-21T12:48:06.861Z,101620.00
2019-03-21T12:50:36.193Z,101624.00
2019-03-21T12:53:05.796Z,101617.00
2019-03-21T12:55:35.441Z,101620.00
2019-03-21T12:58:04.656Z,101624.00
2019-03-21T13:00:43.979Z,101613.00
2019-03-21T13:03:13.307Z,101609.00
2019-03-21T13:05:43.716Z,101613.00
2019-03-21T13:08:13.028Z,101602.00
2019-03-21T13:10:42.301Z,101602.00
2019-03-21T13:13:11.643Z,101601.00
2019-03-21T13:15:41.300Z,101604.00
2019-03-21T13:18:10.714Z,101598.00
2019-03-21T13:20:39.882Z,101593.00
2019-03-21T13:23:09.143Z,101601.00
2019-03-21T13:25:38.405Z,101602.00
2019-03-21T13:28:07.738Z,101603.00
2019-03-21T13:30:37.203Z,101602.00
2019-03-21T13:33:06.587Z,101596.00
2019-03-21T13:35:36.000Z,101586.00
2019-03-21T13:38:05.391Z,101584.00
2019-03-21T13:40:34.906Z,101586.00
2019-03-21T13:43:05.458Z,101590.00
2019-03-21T13:45:34.695Z,101581.00
2019-03-21T13:48:04.601Z,101590.00
2019-03-21T13:50:33.995Z,101581.00
2019-03-21T13:53:05.123Z,101578.00
2019-03-21T13:55:35.113Z,101568.00
2019-03-21T13:58:04.188Z,101567.00
2019-03-21T14:00:33.531Z,101573.00
2019-03-21T14:03:03.197Z,101571.00
2019-03-21T14:05:32.533Z,101564.00
2019-03-21T14:08:02.115Z,101561.00
2019-03-21T14:10:32.390Z,101555.00
2019-03-21T14:13:01.633Z,101568.00
2019-03-21T14:15:30.931Z,101564.00
2019-03-21T14:18:00.564Z,101558.00
2019-03-21T14:20:29.918Z,101559.00
2019-03-21T14:22:59.311Z,101558.00
2019-03-21T14:25:29.091Z,101554.00
2019-03-21T14:27:58.666Z,101551.00
2019-03-21T14:30:27.986Z,101553.00
2019-03-21T14:32:57.067Z,101553.00
2019-03-21T14:35:26.670Z,101556.00
2019-03-21T14:37:55.878Z,101550.00
2019-03-21T14:40:25.490Z,101550.00
2019-03-21T14:42:55.140Z,101544.00
2019-03-21T14:45:24.471Z,101554.00
2019-03-21T14:47:53.657Z,101547.00
2019-03-21T14:50:23.246Z,101544.00
2019-03-21T14:52:52.583Z,101549.00
2019-03-21T14:55:21.739Z,101541.00
2019-03-21T14:57:51.520Z,101534.00
2019-03-21T15:00:21.032Z,101541.00
2019-03-21T15:02:50.718Z,101539.00
2019-03-21T15:05:20.291Z,101531.00
2019-03-21T15:07:49.525Z,101536.00
2019-03-21T15:10:19.008Z,101537.00
2019-03-21T15:12:48.625Z,101539.00
2019-03-21T15:15:17.926Z,101537.00
2019-03-21T15:17:47.233Z,101531.00
2019-03-21T15:20:16.421Z,101537.00
2019-03-21T15:22:45.763Z,101540.00
2019-03-21T15:25:15.850Z,101542.00
2019-03-21T15:27:45.362Z,101542.00
2019-03-21T15:30:18.008Z,101545.00
2019-03-21T15:32:47.599Z,101539.00
2019-03-21T15:35:18.015Z,101542.00
2019-03-21T15:37:47.790Z,101545.00
2019-03-21T15:40:16.908Z,101542.00
2019-03-21T15:42:46.316Z,101546.00
2019-03-21T15:45:22.751Z,101537.00
2019-03-21T15:47:47.635Z,101534.00
2019-03-21T15:50:41.428Z,101532.00
2019-03-21T15:53:10.749Z,101530.00
2019-03-21T15:55:40.129Z,101524.00
2019-03-21T15:58:09.812Z,101525.00
2019-03-21T16:00:40.441Z,101535.00
2019-03-21T16:03:10.979Z,101535.00
2019-03-21T16:05:40.710Z,101534.00
2019-03-21T16:08:10.533Z,101532.00
2019-03-21T16:10:39.984Z,101533.00
2019-03-21T16:13:09.365Z,101532.00
2019-03-21T16:15:38.456Z,101533.00
2019-03-21T16:18:07.637Z,101529.00
2019-03-21T16:20:37.235Z,101531.00
2019-03-21T16:23:06.523Z,101533.00
2019-03-21T16:25:35.770Z,101531.00
2019-03-21T16:28:05.732Z,101525.00
2019-03-21T16:30:35.177Z,101520.00
2019-03-21T16:33:04.594Z,101514.00
2019-03-21T16:35:33.720Z,101513.00
2019-03-21T16:38:03.214Z,101515.00
2019-03-21T16:40:32.843Z,101505.00
2019-03-21T16:43:05.312Z,101503.00
2019-03-21T16:45:33.556Z,101514.00
2019-03-21T16:48:03.201Z,101492.00
2019-03-21T16:50:32.466Z,101496.00
2019-03-21T16:53:01.664Z,101498.00
2019-03-21T16:55:31.059Z,101496.00
2019-03-21T16:58:00.187Z,101491.00
2019-03-21T17:00:29.255Z,101494.00
2019-03-21T17:02:58.387Z,101496.00
2019-03-21T17:05:27.988Z,101503.00
2019-03-21T17:07:57.313Z,101496.00
2019-03-21T17:10:26.486Z,101512.00
2019-03-21T17:12:55.943Z,101507.00
2019-03-21T17:15:25.470Z,101511.00
2019-03-21T17:17:54.817Z,101516.00
2019-03-21T17:20:24.096Z,101515.00
2019-03-21T17:22:53.414Z,101505.00
2019-03-21T17:25:22.572Z,101513.00
2019-03-21T17:27:54.702Z,101512.00
2019-03-21T17:30:23.396Z,101521.00
2019-03-21T17:32:52.697Z,101526.00
2019-03-21T17:35:21.943Z,101525.00
2019-03-21T17:37:51.237Z,101519.00
2019-03-21T17:40:20.322Z,101519.00
2019-03-21T17:42:49.641Z,101514.00
2019-03-21T17:45:19.329Z,101526.00
2019-03-21T17:47:48.903Z,101526.00
2019-03-21T17:50:18.780Z,101516.00
2019-03-21T17:52:48.098Z,101525.00
2019-03-21T17:55:17.271Z,101522.00
2019-03-21T17:57:46.647Z,101522.00
2019-03-21T18:00:18.371Z,101520.00
2019-03-21T18:02:47.689Z,101519.00
2019-03-21T18:05:18.121Z,101532.00
2019-03-21T18:07:47.299Z,101528.00
2019-03-21T18:10:31.595Z,101517.00
2019-03-21T18:13:01.514Z,101520.00
2019-03-21T18:15:31.027Z,101523.00
2019-03-21T18:18:02.472Z,101514.00
2019-03-21T18:20:31.838Z,101510.00
2019-03-21T18:23:02.174Z,101513.00
2019-03-21T18:25:31.420Z,101513.00
2019-03-21T18:28:00.625Z,101513.00
2019-03-21T18:30:30.047Z,101517.00
2019-03-21T18:32:59.310Z,101515.00
2019-03-21T18:35:29.273Z,101509.00
2019-03-21T18:37:58.531Z,101509.00
2019-03-21T18:40:30.522Z,101501.00
2019-03-21T18:42:59.790Z,101501.00
2019-03-21T18:45:29.193Z,101501.00
2019-03-21T18:47:58.152Z,101495.00
2019-03-21T18:50:27.569Z,101499.00
2019-03-21T18:52:56.801Z,101499.00
2019-03-21T18:55:26.039Z,101497.00
2019-03-21T18:57:55.414Z,101497.00
2019-03-21T19:00:24.957Z,101495.00
2019-03-21T19:02:54.231Z,101496.00
2019-03-21T19:05:23.356Z,101486.00
2019-03-21T19:07:52.452Z,101483.00
2019-03-21T19:10:21.987Z,101486.00
2019-03-21T19:12:51.127Z,101472.00
2019-03-21T19:15:20.569Z,101467.00
2019-03-21T19:17:50.133Z,101468.00
2019-03-21T19:20:20.520Z,101460.00
2019-03-21T19:22:49.961Z,101450.00
2019-03-21T19:25:20.076Z,101457.00
2019-03-21T19:27:49.168Z,101455.00
2019-03-21T19:30:19.158Z,101467.00
2019-03-21T19:32:48.634Z,101462.00
2019-03-21T19:35:18.098Z,101450.00
2019-03-21T19:37:47.335Z,101454.00
2019-03-21T19:40:17.250Z,101453.00
2019-03-21T19:42:46.529Z,101461.00
2019-03-21T19:45:16.400Z,101463.00
2019-03-21T19:47:45.583Z,101473.00
2019-03-21T19:50:16.483Z,101474.00
2019-03-21T19:52:45.733Z,101473.00
2019-03-21T19:55:15.136Z,101479.00
2019-03-21T19:57:44.482Z,101451.00
2019-03-21T20:00:16.852Z,101459.00
2019-03-21T20:02:46.264Z,101456.00
2019-03-21T20:05:15.717Z,101447.00
2019-03-21T20:07:45.272Z,101452.00
2019-03-21T20:10:15.558Z,101464.00
2019-03-21T20:12:45.110Z,101459.00
2019-03-21T20:15:15.106Z,101467.00
2019-03-21T20:17:44.338Z,101470.00
2019-03-21T20:20:14.568Z,101463.00
2019-03-21T20:22:44.063Z,101463.00
2019-03-21T20:25:14.552Z,101463.00
2019-03-21T20:27:43.607Z,101464.00
2019-03-21T20:30:15.432Z,101461.00
2019-03-21T20:32:44.729Z,101465.00
2019-03-21T20:35:14.372Z,101463.00
2019-03-21T20:37:43.828Z,101460.00
2019-03-21T20:40:13.400Z,101462.00
2019-03-21T20:42:42.661Z,101458.00
2019-03-21T20:45:13.043Z,101456.00
2019-03-21T20:47:42.148Z,101460.00
2019-03-21T20:50:12.477Z,101463.00
2019-03-21T20:52:41.716Z,101459.00
2019-03-21T20:55:11.645Z,101470.00
2019-03-21T20:57:40.939Z,101474.00
2019-03-21T21:00:15.329Z,101470.00
2019-03-21T21:02:44.906Z,101464.00
2019-03-21T21:05:14.524Z,101473.00
2019-03-21T21:07:44.021Z,101481.00
2019-03-21T21:10:13.847Z,101487.00
2019-03-21T21:12:43.371Z,101481.00
2019-03-21T21:15:13.272Z,101484.00
2019-03-21T21:17:43.261Z,101487.00
2019-03-21T21:20:13.279Z,101494.00
2019-03-21T21:22:42.836Z,101500.00
2019-03-21T21:25:12.849Z,101500.00
2019-03-21T21:27:49.405Z,101487.00
2019-03-21T21:30:16.561Z,101480.00
2019-03-21T21:32:45.848Z,101492.00
2019-03-21T21:35:15.465Z,101482.00
2019-03-21T21:37:45.389Z,101486.00
2019-03-21T21:40:16.117Z,101499.00
2019-03-21T21:42:45.586Z,101492.00
2019-03-21T21:45:15.260Z,101490.00
2019-03-21T21:47:44.483Z,101489.00
2019-03-21T21:50:14.067Z,101491.00
2019-03-21T21:52:43.272Z,101487.00
2019-03-21T21:55:13.190Z,101494.00
2019-03-21T21:57:42.509Z,101501.00
2019-03-21T22:00:14.030Z,101495.00
2019-03-21T22:02:43.686Z,101502.00
2019-03-21T22:05:13.387Z,101500.00
2019-03-21T22:07:42.516Z,101509.00
2019-03-21T22:10:12.318Z,101497.00
2019-03-21T22:12:41.835Z,101498.00
2019-03-21T22:15:11.450Z,101501.00
2019-03-21T22:17:40.610Z,101495.00
2019-03-21T22:20:10.885Z,101485.00
2019-03-21T22:22:40.242Z,101485.00
2019-03-21T22:25:09.771Z,101485.00
2019-03-21T22:27:39.739Z,101488.00
2019-03-21T22:30:11.471Z,101486.00
2019-03-21T22:32:40.684Z,101486.00
2019-03-21T22:35:10.285Z,101472.00
2019-03-21T22:37:40.082Z,101484.00
2019-03-21T22:40:09.767Z,101479.00
2019-03-21T22:42:39.730Z,101476.00
2019-03-21T22:45:10.418Z,101474.00
2019-03-21T22:47:40.152Z,101466.00
2019-03-21T22:50:11.838Z,101465.00
2019-03-21T22:52:41.252Z,101458.00
2019-03-21T22:55:10.774Z,101467.00
2019-03-21T22:57:40.019Z,101476.00
2019-03-21T23:00:13.772Z,101477.00
2019-03-21T23:02:43.482Z,101471.00
2019-03-21T23:05:13.266Z,101480.00
2019-03-21T23:07:42.653Z,101464.00
2019-03-21T23:10:12.637Z,101464.00
2019-03-21T23:12:42.220Z,101455.00
2019-03-21T23:15:12.050Z,101450.00
2019-03-21T23:17:41.798Z,101440.00
2019-03-21T23:20:11.437Z,101447.00
2019-03-21T23:22:40.654Z,101444.00
2019-03-21T23:25:12.596Z,101449.00
2019-03-21T23:27:41.681Z,101457.00
2019-03-21T23:30:12.015Z,101452.00
2019-03-21T23:32:41.388Z,101464.00
2019-03-21T23:35:10.847Z,101461.00
2019-03-21T23:37:40.089Z,101463.00
2019-03-21T23:40:09.962Z,101460.00
2019-03-21T23:42:39.083Z,101469.00
2019-03-21T23:45:09.296Z,101461.00
2019-03-21T23:47:38.726Z,101461.00
2019-03-21T23:50:08.676Z,101453.00
2019-03-21T23:52:38.104Z,101452.00
2019-03-21T23:55:08.480Z,101457.00
2019-03-21T23:57:37.935Z,101454.00
